Time;durP1;ratioP1;P1;durP2;ratioP2;P2;SDS_P1;SDS_P2;PMS_P1;PMS_P2;Temp;Humidity;BMP_temperature;BMP_pressure;BME280_temperature;BME280_humidity;BME280_pressure;Samples;Min_cycle;Max_cycle;Signal;HPM_P1;HPM_P2
2021/01/17 00:01:04;;;;;;;20.27;8.93;;;;;;;-10.55;72.19;100619.81;1727250;81;25920;-78
2021/01/17 00:03:33;;;;;;;24.32;10.65;;;;;;;-10.59;72.11;100610.47;1652002;81;26547;-80
2021/01/17 00:06:02;;;;;;;20.30;9.25;;;;;;;-10.62;72.61;100622.20;1710653;81;27412;-79
2021/01/17 00:08:30;;;;;;;23.25;10.70;;;;;;;-10.60;72.65;100615.67;1707196;81;26146;-78
2021/01/17 00:10:58;;;;;;;26.52;11.50;;;;;;;-10.60;72.64;100623.00;1732239;81;25758;-79
2021/01/17 00:13:27;;;;;;;20.68;8.58;;;;;;;-10.58;72.70;100628.11;1650988;83;25819;-77
2021/01/17 00:15:55;;;;;;;26.30;12.05;;;;;;;-10.58;72.75;100632.84;1705219;83;25820;-78
2021/01/17 00:18:24;;;;;;;39.13;13.80;;;;;;;-10.58;72.71;100633.28;1702720;81;27496;-78
2021/01/17 00:20:52;;;;;;;18.27;8.83;;;;;;;-10.59;72.93;100634.20;1726175;81;25793;-78
2021/01/17 00:23:20;;;;;;;31.15;12.00;;;;;;;-10.63;72.80;100634.77;1672832;83;25666;-78
2021/01/17 00:25:49;;;;;;;15.65;7.83;;;;;;;-10.68;72.57;100640.98;1688437;83;25660;-78
2021/01/17 00:28:17;;;;;;;21.30;8.83;;;;;;;-10.75;72.40;100637.77;1693339;83;25426;-80
2021/01/17 00:30:45;;;;;;;17.07;7.62;;;;;;;-10.83;72.44;100651.41;1708152;83;27429;-78
2021/01/17 00:33:14;;;;;;;25.05;10.85;;;;;;;-10.89;72.42;100654.66;1666687;83;25829;-78
2021/01/17 00:35:42;;;;;;;29.32;11.85;;;;;;;-10.93;72.60;100653.92;1687903;83;26330;-78
2021/01/17 00:38:10;;;;;;;27.10;11.63;;;;;;;-10.92;72.71;100656.89;1675943;83;26259;-78
2021/01/17 00:40:39;;;;;;;29.20;12.75;;;;;;;-10.90;72.87;100662.03;1702896;83;25691;-80
2021/01/17 00:43:07;;;;;;;35.95;12.85;;;;;;;-10.85;72.81;100665.30;1719024;82;28245;-79
2021/01/17 00:45:35;;;;;;;32.40;13.53;;;;;;;-10.88;72.56;100669.30;1699830;81;26247;-79
2021/01/17 00:48:05;;;;;;;25.97;9.90;;;;;;;-10.88;72.95;100666.23;1695561;83;25734;-78
2021/01/17 00:50:33;;;;;;;27.70;11.55;;;;;;;-10.84;72.80;100669.59;1699428;81;26978;-80
2021/01/17 00:53:03;;;;;;;30.50;13.28;;;;;;;-10.84;72.97;100670.87;1666026;84;25802;-79
2021/01/17 00:55:33;;;;;;;25.55;11.15;;;;;;;-10.81;73.01;100681.11;1655546;82;27295;-78
2021/01/17 00:58:03;;;;;;;39.40;14.53;;;;;;;-10.80;72.57;100677.20;1690904;82;26012;-78
2021/01/17 01:00:32;;;;;;;26.77;12.73;;;;;;;-10.87;72.48;100678.28;1684844;84;26266;-79
2021/01/17 01:03:15;;;;;;;29.52;12.10;;;;;;;-10.94;71.81;100683.26;1803564;79;25653;-79
2021/01/17 01:05:43;;;;;;;33.02;14.28;;;;;;;-11.08;71.61;100679.85;1746713;79;26385;-78
2021/01/17 01:08:10;;;;;;;33.63;14.83;;;;;;;-11.13;72.17;100684.31;1692160;82;28264;-77
2021/01/17 01:10:37;;;;;;;30.30;11.65;;;;;;;-11.08;72.57;100688.05;1722503;81;25917;-78
2021/01/17 01:13:05;;;;;;;27.22;10.10;;;;;;;-11.08;72.36;100688.91;1691846;82;25812;-79
2021/01/17 01:15:32;;;;;;;34.40;13.75;;;;;;;-11.10;72.40;100695.02;1684358;81;26015;-78
2021/01/17 01:18:01;;;;;;;38.90;15.72;;;;;;;-11.14;72.43;100693.42;1747494;80;25745;-79
2021/01/17 01:20:28;;;;;;;33.30;13.75;;;;;;;-11.18;72.63;100696.97;1747571;81;28132;-78
2021/01/17 01:22:55;;;;;;;36.08;13.43;;;;;;;-11.18;72.53;100698.27;1693229;82;26158;-79
2021/01/17 01:25:23;;;;;;;41.83;15.93;;;;;;;-11.21;72.40;100693.20;1716911;80;26536;-78
2021/01/17 01:27:50;;;;;;;24.00;10.05;;;;;;;-11.25;72.37;100691.62;1704950;82;25756;-78
2021/01/17 01:30:18;;;;;;;38.55;15.08;;;;;;;-11.31;72.14;100702.16;1701718;82;25725;-78
2021/01/17 01:32:51;;;;;;;33.83;14.75;;;;;;;-11.37;72.28;100697.15;1695695;82;27501;-78
2021/01/17 01:35:18;;;;;;;36.42;15.35;;;;;;;-11.39;72.54;100704.11;1719310;82;26227;-79
2021/01/17 01:37:46;;;;;;;40.98;14.13;;;;;;;-11.33;72.71;100715.11;1697917;82;25926;-78
2021/01/17 01:40:13;;;;;;;32.10;12.78;;;;;;;-11.33;72.52;100710.41;1727025;81;25834;-79
2021/01/17 01:42:42;;;;;;;28.77;11.53;;;;;;;-11.36;72.51;100715.22;1663933;81;26122;-78
2021/01/17 01:45:10;;;;;;;35.60;14.05;;;;;;;-11.35;72.58;100723.36;1688685;82;27530;-78
2021/01/17 01:47:38;;;;;;;36.68;13.35;;;;;;;-11.31;72.68;100720.25;1701650;82;25774;-79
2021/01/17 01:50:09;;;;;;;30.75;14.15;;;;;;;-11.29;72.71;100730.09;1738008;81;25848;-78
2021/01/17 01:52:36;;;;;;;34.88;12.58;;;;;;;-11.26;72.66;100728.25;1660341;82;25911;-78
2021/01/17 01:55:06;;;;;;;32.50;12.50;;;;;;;-11.25;72.56;100726.08;1706692;82;25904;-77
2021/01/17 01:57:34;;;;;;;35.77;14.80;;;;;;;-11.29;72.15;100730.92;1723397;81;28297;-79
2021/01/17 02:00:07;;;;;;;35.17;12.95;;;;;;;-11.36;72.24;100735.05;1746230;81;26131;-80
2021/01/17 02:02:44;;;;;;;30.83;12.17;;;;;;;-11.44;72.23;100742.19;1722077;80;25797;-78
2021/01/17 02:05:13;;;;;;;23.20;8.08;;;;;;;-11.52;71.99;100740.25;1723114;81;25848;-78
2021/01/17 02:07:57;;;;;;;36.08;14.13;;;;;;;-11.60;71.94;100737.06;1727249;80;25885;-78
2021/01/17 02:10:24;;;;;;;30.23;11.88;;;;;;;-11.72;71.89;100743.48;1723367;82;27532;-79
2021/01/17 02:13:17;;;;;;;28.17;12.03;;;;;;;-11.80;72.04;100748.00;1673284;81;26349;-78
2021/01/17 02:15:46;;;;;;;31.73;11.88;;;;;;;-11.85;72.13;100736.97;1702171;82;26225;-78
2021/01/17 02:18:16;;;;;;;28.35;11.85;;;;;;;-11.88;72.32;100747.38;1701001;82;26460;-77
2021/01/17 02:20:45;;;;;;;26.85;12.33;;;;;;;-11.91;72.44;100753.47;1722058;81;25850;-79
2021/01/17 02:23:17;;;;;;;32.13;11.33;;;;;;;-11.87;72.75;100752.95;1691440;81;28697;-78
2021/01/17 02:25:46;;;;;;;30.50;11.48;;;;;;;-11.86;72.68;100757.22;1673032;83;25889;-80
2021/01/17 02:28:17;;;;;;;21.25;9.08;;;;;;;-11.83;72.64;100761.45;1703493;83;25879;-78
2021/01/17 02:30:55;;;;;;;25.95;9.93;;;;;;;-11.85;72.18;100764.09;1700855;82;25954;-78
2021/01/17 02:33:32;;;;;;;31.20;12.55;;;;;;;-11.93;72.16;100763.00;1693539;83;25784;-78
2021/01/17 02:36:08;;;;;;;37.80;15.90;;;;;;;-12.01;72.09;100764.95;1709207;82;27597;-78
2021/01/17 02:39:06;;;;;;;32.67;10.98;;;;;;;-12.03;72.30;100760.71;1702847;82;25987;-78
2021/01/17 02:41:54;;;;;;;34.73;12.13;;;;;;;-12.06;72.02;100760.81;1737339;81;25732;-78
2021/01/17 02:44:23;;;;;;;25.40;10.10;;;;;;;-12.09;72.17;100760.45;1706447;82;25990;-78
2021/01/17 02:46:50;;;;;;;31.55;12.05;;;;;;;-12.13;72.12;100761.86;1692225;83;25808;-79
2021/01/17 02:49:18;;;;;;;22.65;9.28;;;;;;;-12.15;72.29;100762.34;1697673;81;27322;-78
2021/01/17 02:51:48;;;;;;;25.62;10.65;;;;;;;-12.17;72.21;100766.27;1721147;81;25840;-78
2021/01/17 02:54:23;;;;;;;35.85;11.57;;;;;;;-12.15;72.37;100765.78;1676870;81;25871;-78
2021/01/17 02:57:10;;;;;;;31.90;13.20;;;;;;;-12.10;72.38;100769.53;1721494;82;26240;-78
2021/01/17 02:59:52;;;;;;;35.33;11.93;;;;;;;-12.10;72.33;100773.41;1702154;82;25786;-78
2021/01/17 03:02:29;;;;;;;29.87;12.33;;;;;;;-12.04;72.40;100783.09;1734308;81;28566;-79
2021/01/17 03:05:05;;;;;;;33.20;13.50;;;;;;;-12.02;72.35;100785.22;1722650;82;25784;-79
2021/01/17 03:07:35;;;;;;;28.55;12.90;;;;;;;-11.97;72.45;100784.63;1704738;81;25375;-77
2021/01/17 03:10:06;;;;;;;29.77;12.00;;;;;;;-11.91;72.33;100788.33;1686391;82;25803;-77
2021/01/17 03:12:33;;;;;;;25.80;10.18;;;;;;;-11.91;72.26;100789.63;1707902;82;25802;-77
2021/01/17 03:15:04;;;;;;;36.90;13.43;;;;;;;-11.93;72.02;100793.16;1679196;81;27631;-79
2021/01/17 03:17:31;;;;;;;34.23;11.75;;;;;;;-11.97;72.11;100796.69;1682085;82;25804;-78
2021/01/17 03:19:59;;;;;;;26.93;11.95;;;;;;;-11.99;72.08;100799.76;1698558;81;25901;-77
2021/01/17 03:22:27;;;;;;;39.90;13.00;;;;;;;-12.01;72.06;100802.83;1739362;81;25793;-78
2021/01/17 03:24:54;;;;;;;27.35;13.10;;;;;;;-12.05;72.04;100801.22;1676476;81;25917;-79
2021/01/17 03:27:21;;;;;;;35.33;13.43;;;;;;;-12.14;71.80;100804.04;1672060;82;27539;-77
2021/01/17 03:29:49;;;;;;;34.38;14.53;;;;;;;-12.22;72.04;100802.11;1700460;82;26182;-78
2021/01/17 03:32:17;;;;;;;37.42;14.73;;;;;;;-12.19;72.34;100811.93;1697530;82;26417;-78
2021/01/17 03:34:48;;;;;;;40.43;14.90;;;;;;;-12.13;72.53;100814.34;1655514;81;25842;-79
2021/01/17 03:37:20;;;;;;;27.80;13.08;;;;;;;-12.08;72.28;100810.36;1676475;81;26389;-77
2021/01/17 03:39:48;;;;;;;36.50;12.65;;;;;;;-12.05;72.32;100813.69;1726659;82;26503;-77
2021/01/17 03:42:15;;;;;;;36.73;14.95;;;;;;;-12.02;72.13;100815.35;1730090;81;25863;-79
2021/01/17 03:44:43;;;;;;;37.38;15.58;;;;;;;-12.01;72.22;100810.58;1675855;81;25850;-77
2021/01/17 03:47:10;;;;;;;39.95;14.47;;;;;;;-12.00;72.18;100814.87;1697757;81;26156;-76
2021/01/17 03:49:37;;;;;;;31.23;12.68;;;;;;;-11.99;71.83;100812.23;1729995;82;26024;-78
2021/01/17 03:52:04;;;;;;;39.42;13.03;;;;;;;-12.05;71.77;100821.44;1726088;82;28490;-78
2021/01/17 03:54:32;;;;;;;33.30;12.07;;;;;;;-12.13;71.75;100816.92;1704982;81;25816;-77
2021/01/17 03:56:59;;;;;;;39.67;15.20;;;;;;;-12.12;72.16;100824.20;1709654;81;26515;-78
2021/01/17 03:59:27;;;;;;;31.10;12.88;;;;;;;-12.11;72.02;100824.63;1687165;81;25891;-78
2021/01/17 04:01:54;;;;;;;38.10;14.60;;;;;;;-12.09;72.06;100822.41;1716625;82;25965;-78
2021/01/17 04:04:21;;;;;;;42.27;15.55;;;;;;;-12.09;72.15;100824.99;1712727;82;27626;-78
2021/01/17 04:06:49;;;;;;;36.90;15.03;;;;;;;-12.06;72.12;100823.60;1702324;83;25801;-78
2021/01/17 04:09:16;;;;;;;37.40;15.23;;;;;;;-12.04;72.22;100824.88;1724359;81;26278;-79
2021/01/17 04:11:44;;;;;;;38.73;14.65;;;;;;;-12.04;72.14;100821.83;1704434;82;25990;-78
2021/01/17 04:14:11;;;;;;;34.73;14.50;;;;;;;-12.09;71.84;100826.72;1665728;81;26382;-78
2021/01/17 04:16:38;;;;;;;37.08;13.93;;;;;;;-12.11;71.87;100825.48;1688239;82;28455;-80
2021/01/17 04:19:06;;;;;;;39.10;14.90;;;;;;;-12.14;71.89;100825.98;1705977;82;25755;-80
2021/01/17 04:21:35;;;;;;;41.75;17.85;;;;;;;-12.16;71.85;100826.03;1714575;82;26596;-77
2021/01/17 04:24:03;;;;;;;46.37;17.10;;;;;;;-12.18;72.04;100831.67;1694952;82;26049;-78
2021/01/17 04:26:30;;;;;;;42.08;16.62;;;;;;;-12.14;72.12;100833.72;1677542;83;26155;-78
2021/01/17 04:28:57;;;;;;;38.67;14.40;;;;;;;-12.11;72.01;100840.97;1735082;81;27247;-77
2021/01/17 04:31:25;;;;;;;34.03;14.23;;;;;;;-12.10;71.81;100845.23;1698130;82;26124;-78
2021/01/17 04:33:52;;;;;;;33.58;15.15;;;;;;;-12.14;71.62;100841.47;1688835;82;26105;-78
2021/01/17 04:36:20;;;;;;;41.83;15.43;;;;;;;-12.15;71.97;100837.20;1672785;81;26248;-80
2021/01/17 04:38:47;;;;;;;44.60;16.97;;;;;;;-12.14;72.00;100830.70;1748660;80;25761;-79
2021/01/17 04:41:16;;;;;;;39.05;15.43;;;;;;;-12.01;72.40;100828.65;1689285;80;27547;-79
2021/01/17 04:43:56;;;;;;;48.45;17.98;;;;;;;-11.93;72.01;100827.56;1699341;83;25922;-78
2021/01/17 04:46:26;;;;;;;34.92;13.40;;;;;;;-11.86;72.11;100840.72;1720161;82;25831;-78
2021/01/17 04:49:00;;;;;;;40.48;15.40;;;;;;;-11.86;71.98;100843.73;1744177;80;26802;-78
2021/01/17 04:51:29;;;;;;;49.70;16.30;;;;;;;-11.71;72.51;100848.93;1724650;80;25848;-78
2021/01/17 04:53:59;;;;;;;41.85;16.85;;;;;;;-11.58;72.30;100848.53;1727103;80;28476;-77
2021/01/17 04:56:36;;;;;;;41.92;16.35;;;;;;;-11.54;71.96;100850.13;1727828;82;26480;-77
2021/01/17 04:59:10;;;;;;;37.45;15.15;;;;;;;-11.48;71.89;100849.95;1748475;80;26376;-79
2021/01/17 05:01:59;;;;;;;49.33;17.32;;;;;;;-11.48;71.32;100854.30;1727525;80;25883;-79
2021/01/17 05:04:55;;;;;;;48.83;16.95;;;;;;;-11.57;71.21;100860.58;1722516;80;25849;-77
2021/01/17 05:07:24;;;;;;;38.10;16.00;;;;;;;-11.63;71.13;100865.88;1728069;80;26676;-78
2021/01/17 05:10:05;;;;;;;39.48;15.15;;;;;;;-11.72;71.11;100872.65;1721313;82;26023;-79
2021/01/17 05:12:53;;;;;;;43.85;15.95;;;;;;;-11.70;71.25;100869.58;1830008;77;25765;-78
2021/01/17 05:15:23;;;;;;;44.27;15.80;;;;;;;-11.67;71.49;100875.11;1776574;78;26133;-78
2021/01/17 05:17:54;;;;;;;36.68;14.73;;;;;;;-11.56;71.79;100875.61;1767901;78;32287;-78
2021/01/17 05:20:22;;;;;;;40.70;16.37;;;;;;;-11.50;71.42;100870.30;1787147;78;25766;-80
2021/01/17 05:22:52;;;;;;;42.03;18.32;;;;;;;-11.52;71.14;100870.31;1731083;78;25809;-78
2021/01/17 05:25:24;;;;;;;37.83;15.10;;;;;;;-11.53;71.55;100869.08;1802318;78;25842;-80
2021/01/17 05:27:51;;;;;;;41.75;16.77;;;;;;;-11.48;71.23;100871.10;1793713;78;25768;-76
2021/01/17 05:30:19;;;;;;;40.38;16.93;;;;;;;-11.52;71.10;100873.34;1797715;78;28447;-78
2021/01/17 05:32:54;;;;;;;43.05;16.93;;;;;;;-11.52;70.99;100870.75;1746820;78;26041;-76
2021/01/17 05:35:24;;;;;;;43.95;17.50;;;;;;;-11.55;71.13;100879.91;1766339;78;26023;-81
2021/01/17 05:37:55;;;;;;;36.85;15.78;;;;;;;-11.51;71.20;100882.80;1788874;78;26355;-80
2021/01/17 05:40:23;;;;;;;43.68;17.32;;;;;;;-11.50;71.17;100881.92;1793014;78;26442;-79
2021/01/17 05:42:51;;;;;;;43.40;16.82;;;;;;;-11.49;71.16;100881.02;1740627;79;27553;-80
2021/01/17 05:45:24;;;;;;;36.68;12.75;;;;;;;-11.56;70.74;100885.51;1767733;78;26125;-78
2021/01/17 05:47:58;;;;;;;42.75;15.85;;;;;;;-11.63;70.57;100885.73;1790160;79;25813;-79
2021/01/17 05:50:31;;;;;;;47.05;16.95;;;;;;;-11.74;70.75;100891.22;1790068;79;25758;-78
2021/01/17 05:53:00;;;;;;;38.70;15.88;;;;;;;-11.82;70.83;100892.31;1738028;79;25374;-79
2021/01/17 05:55:35;;;;;;;45.93;17.03;;;;;;;-11.83;71.08;100894.03;1770687;79;27538;-78
2021/01/17 05:58:33;;;;;;;40.67;16.97;;;;;;;-11.83;71.27;100892.74;1715379;81;25915;-77
2021/01/17 06:01:17;;;;;;;43.30;15.95;;;;;;;-11.86;70.99;100895.39;1728782;81;25725;-78
2021/01/17 06:03:54;;;;;;;45.25;17.05;;;;;;;-11.86;71.10;100894.95;1733002;81;25844;-77
2021/01/17 06:06:28;;;;;;;45.65;16.20;;;;;;;-11.84;71.47;100903.95;1719850;81;25812;-77
2021/01/17 06:08:59;;;;;;;40.08;17.17;;;;;;;-11.76;71.48;100907.64;1753393;80;28805;-78
2021/01/17 06:11:28;;;;;;;54.48;16.02;;;;;;;-11.77;71.18;100909.80;1764089;80;26159;-77
2021/01/17 06:13:59;;;;;;;51.30;17.07;;;;;;;-11.74;71.24;100909.73;1700121;81;25808;-78
2021/01/17 06:16:40;;;;;;;42.08;16.65;;;;;;;-11.76;70.85;100911.08;1712754;80;25944;-78
2021/01/17 06:19:10;;;;;;;37.60;15.40;;;;;;;-11.81;70.76;100906.46;1713678;81;25739;-77
2021/01/17 06:21:39;;;;;;;41.02;15.32;;;;;;;-11.90;70.92;100910.13;1735545;82;28544;-78
2021/01/17 06:24:09;;;;;;;42.13;15.53;;;;;;;-11.89;71.03;100911.81;1757187;80;25741;-79
2021/01/17 06:26:39;;;;;;;47.48;16.85;;;;;;;-11.94;71.03;100912.39;1754722;78;34961;-79
2021/01/17 06:29:10;;;;;;;39.38;15.95;;;;;;;-11.96;71.14;100918.04;1788996;80;26153;-78
2021/01/17 06:31:39;;;;;;;46.13;18.12;;;;;;;-11.94;71.21;100920.58;1796542;78;25809;-79
2021/01/17 06:34:11;;;;;;;42.73;17.05;;;;;;;-11.95;71.27;100926.61;1743593;80;27541;-78
2021/01/17 06:36:42;;;;;;;38.02;16.65;;;;;;;-11.95;71.30;100931.77;1768386;78;26345;-78
2021/01/17 06:39:25;;;;;;;42.23;17.52;;;;;;;-11.96;71.01;100932.68;1783860;79;25823;-78
2021/01/17 06:41:57;;;;;;;42.27;17.05;;;;;;;-12.00;71.08;100942.25;1791891;78;25733;-78
2021/01/17 06:44:31;;;;;;;37.40;15.55;;;;;;;-12.00;70.99;100943.97;1794985;78;25698;-78
2021/01/17 06:47:02;;;;;;;37.80;17.17;;;;;;;-12.06;70.97;100942.37;1779341;78;26712;-79
2021/01/17 06:49:37;;;;;;;39.48;14.18;;;;;;;-12.10;70.98;100939.46;1789850;78;25933;-78
2021/01/17 06:52:06;;;;;;;40.33;17.55;;;;;;;-12.11;71.03;100947.25;1778902;78;25765;-82
2021/01/17 06:54:46;;;;;;;44.77;16.52;;;;;;;-12.10;71.48;100952.84;1769401;78;25866;-78
2021/01/17 06:57:15;;;;;;;40.75;16.27;;;;;;;-12.04;71.46;100954.80;1767722;80;32589;-80
2021/01/17 06:59:51;;;;;;;39.30;15.50;;;;;;;-12.00;71.41;100957.73;1787771;78;33042;-78
2021/01/17 07:02:38;;;;;;;41.55;15.23;;;;;;;-11.99;71.09;100966.31;1789510;78;26222;-79
2021/01/17 07:05:45;;;;;;;37.73;14.87;;;;;;;-11.98;71.19;100968.02;1795785;78;25844;-77
2021/01/17 07:08:37;;;;;;;47.43;17.80;;;;;;;-11.92;71.24;100972.59;1779676;78;26167;-77
2021/01/17 07:11:30;;;;;;;39.30;16.35;;;;;;;-11.86;71.26;100976.31;1759943;79;25405;-78
2021/01/17 07:14:03;;;;;;;44.50;16.65;;;;;;;-11.79;71.39;100983.47;1773396;78;28488;-78
2021/01/17 07:16:32;;;;;;;42.17;16.25;;;;;;;-11.72;71.40;100985.46;1769709;78;25834;-78
2021/01/17 07:19:06;;;;;;;32.30;15.47;;;;;;;-11.71;71.34;100991.88;1734089;78;25789;-80
2021/01/17 07:21:37;;;;;;;31.12;13.98;;;;;;;-11.66;71.67;100989.17;1771302;78;25820;-78
2021/01/17 07:24:07;;;;;;;39.60;16.32;;;;;;;-11.59;71.38;100990.69;1762703;78;25986;-78
2021/01/17 07:26:41;;;;;;;;;;;;;;;-11.54;71.25;100987.53;1730127;78;27534;-78
2021/01/17 07:29:18;;;;;;;47.27;18.12;;;;;;;-11.37;71.86;100986.21;1759526;80;25904;-79
2021/01/17 07:31:47;;;;;;;40.80;15.80;;;;;;;-11.24;72.22;100995.78;1674155;83;25505;-78
2021/01/17 07:34:14;;;;;;;39.10;16.25;;;;;;;-11.10;71.63;100989.34;1685265;82;27332;-78
2021/01/17 07:36:49;;;;;;;39.25;16.35;;;;;;;-10.98;70.92;100997.22;1709853;82;25817;-79
2021/01/17 07:39:20;;;;;;;41.10;16.37;;;;;;;-10.93;70.73;101000.97;1665524;82;25838;-81
2021/01/17 07:41:50;;;;;;;40.58;18.27;;;;;;;-10.92;70.09;101009.13;1697823;82;26006;-78
2021/01/17 07:44:19;;;;;;;;;;;;;;;-10.99;70.23;101020.11;1663655;82;26325;-77
2021/01/17 07:46:47;;;;;;;42.43;16.15;;;;;;;-11.03;70.03;101023.64;1702543;82;28630;-78
2021/01/17 07:49:16;;;;;;;36.35;16.85;;;;;;;-10.99;70.28;101024.43;1682842;83;26125;-78
2021/01/17 07:51:45;;;;;;;37.13;15.13;;;;;;;-10.97;69.87;101034.28;1704274;81;26388;-78
2021/01/17 07:54:25;;;;;;;37.20;15.00;;;;;;;-10.99;69.64;101034.34;1680377;82;26144;-79
2021/01/17 07:56:53;;;;;;;39.48;17.23;;;;;;;-11.10;69.10;101032.48;1691053;82;26216;-78
2021/01/17 07:59:25;;;;;;;48.48;16.80;;;;;;;-11.19;69.58;101032.72;1679616;83;27533;-78
2021/01/17 08:01:54;;;;;;;41.88;16.73;;;;;;;-11.23;69.42;101023.34;1737872;82;26390;-78
2021/01/17 08:04:22;;;;;;;32.80;14.38;;;;;;;-11.23;69.58;101022.05;1696117;82;26362;-78
2021/01/17 08:06:51;;;;;;;41.73;16.17;;;;;;;-11.24;69.13;101025.08;1698755;81;25778;-77
2021/01/17 08:09:33;;;;;;;40.95;17.55;;;;;;;-11.27;69.28;101023.84;1703472;83;26191;-82
2021/01/17 08:12:00;;;;;;;50.23;18.67;;;;;;;-11.29;69.23;101032.56;1694601;82;28876;-77
2021/01/17 08:14:33;;;;;;;44.13;17.62;;;;;;;-11.30;69.34;101036.87;1687359;82;25859;-79
2021/01/17 08:17:17;;;;;;;37.58;16.75;;;;;;;-11.32;69.38;101040.37;1652913;82;25909;-77
2021/01/17 08:20:02;;;;;;;44.15;18.50;;;;;;;-11.33;69.31;101037.41;1722840;82;25835;-79
2021/01/17 08:22:34;;;;;;;44.98;18.15;;;;;;;-11.38;69.41;101045.28;1708782;82;26228;-79
2021/01/17 08:25:05;;;;;;;34.15;17.10;;;;;;;-11.42;69.09;101046.68;1699659;82;26988;-81
2021/01/17 08:27:42;;;;;;;43.08;17.65;;;;;;;-11.50;69.31;101044.27;1669935;82;25947;-78
2021/01/17 08:30:21;;;;;;;39.83;17.73;;;;;;;-11.51;69.08;101049.48;1716476;81;25764;-80
2021/01/17 08:32:54;;;;;;;41.95;16.23;;;;;;;-11.58;69.08;101053.09;1685750;83;26093;-79
2021/01/17 08:35:27;;;;;;;42.50;16.62;;;;;;;-11.59;69.47;101057.44;1695452;82;25909;-78
2021/01/17 08:38:12;;;;;;;46.00;18.35;;;;;;;-11.62;68.87;101070.86;1677832;84;27564;-80
2021/01/17 08:40:50;;;;;;;38.20;18.35;;;;;;;-11.72;68.87;101075.45;1698635;82;26262;-78
2021/01/17 08:43:19;;;;;;;40.88;16.67;;;;;;;-11.86;69.25;101077.48;1720038;82;25830;-78
2021/01/17 08:45:49;;;;;;;38.78;17.12;;;;;;;-11.88;68.97;101081.40;1674594;83;26123;-79
2021/01/17 08:48:20;;;;;;;47.60;19.10;;;;;;;-11.86;69.35;101091.25;1701323;82;25400;-77
2021/01/17 08:50:55;;;;;;;42.33;17.48;;;;;;;-11.84;69.32;101090.38;1725086;81;27487;-78
2021/01/17 08:53:31;;;;;;;51.80;19.27;;;;;;;-11.91;69.08;101094.37;1698475;82;25839;-76
2021/01/17 08:56:19;;;;;;;36.17;14.87;;;;;;;-11.93;69.37;101101.30;1700833;82;25824;-78
2021/01/17 08:58:49;;;;;;;50.33;20.48;;;;;;;-11.86;69.37;101102.02;1695516;82;26189;-78
2021/01/17 09:01:25;;;;;;;40.40;18.95;;;;;;;-11.82;69.27;101108.81;1793788;79;26202;-78
2021/01/17 09:04:00;;;;;;;55.58;23.50;;;;;;;-11.81;69.16;101113.55;1717511;83;25807;-78
2021/01/17 09:06:31;;;;;;;59.65;21.50;;;;;;;-11.81;69.30;101120.86;1725795;81;27539;-77
2021/01/17 09:09:05;;;;;;;48.68;21.60;;;;;;;-11.76;69.19;101122.91;1734320;81;25738;-77
2021/01/17 09:11:38;;;;;;;43.52;18.92;;;;;;;-11.68;69.40;101131.76;1681790;83;26566;-79
2021/01/17 09:14:19;;;;;;;46.42;17.67;;;;;;;-11.67;68.56;101148.51;1680418;83;26551;-78
2021/01/17 09:17:01;;;;;;;45.85;20.10;;;;;;;-11.74;68.19;101146.11;1706636;82;25876;-78
2021/01/17 09:19:35;;;;;;;44.35;16.82;;;;;;;-11.82;68.25;101147.55;1725035;82;28508;-79
2021/01/17 09:22:09;;;;;;;57.35;20.57;;;;;;;-11.87;68.14;101154.58;1673937;82;26549;-79
2021/01/17 09:24:40;;;;;;;53.02;22.52;;;;;;;-11.88;68.64;101156.30;1697263;83;27683;-78
2021/01/17 09:27:10;;;;;;;45.65;19.12;;;;;;;-11.87;68.20;101157.16;1676210;83;25789;-77
2021/01/17 09:29:43;;;;;;;44.00;18.37;;;;;;;-11.90;68.50;101159.36;1712035;82;25843;-77
2021/01/17 09:32:17;;;;;;;53.05;21.05;;;;;;;-11.88;68.43;101155.01;1653040;83;28504;-79
2021/01/17 09:34:47;;;;;;;51.05;21.15;;;;;;;-11.89;68.71;101157.63;1652645;83;25844;-78
2021/01/17 09:37:21;;;;;;;50.38;21.50;;;;;;;-11.88;68.81;101160.17;1697993;83;25757;-78
2021/01/17 09:39:51;;;;;;;53.42;22.45;;;;;;;-11.92;68.23;101160.27;1710220;82;25417;-79
2021/01/17 09:42:23;;;;;;;55.08;21.65;;;;;;;-11.98;68.25;101160.41;1650478;82;26487;-79
2021/01/17 09:44:56;;;;;;;52.53;21.00;;;;;;;-11.97;68.44;101160.80;1676040;83;28298;-79
2021/01/17 09:47:27;;;;;;;56.65;21.35;;;;;;;-11.99;67.87;101168.59;1676760;83;26392;-78
2021/01/17 09:49:57;;;;;;;56.08;20.37;;;;;;;-12.03;67.88;101172.55;1708983;83;26223;-78
2021/01/17 09:52:26;;;;;;;54.90;23.02;;;;;;;-12.12;67.87;101171.02;1639086;84;26548;-78
2021/01/17 09:54:55;;;;;;;46.30;20.75;;;;;;;-12.14;67.82;101175.36;1663296;83;26066;-78
2021/01/17 09:57:26;;;;;;;52.30;20.82;;;;;;;-12.13;68.13;101176.22;1681705;83;28565;-77
2021/01/17 09:59:55;;;;;;;52.83;22.32;;;;;;;-12.15;67.86;101176.69;1704498;83;26445;-78
2021/01/17 10:02:25;;;;;;;56.58;20.45;;;;;;;-12.18;67.82;101184.05;1660702;83;25845;-78
2021/01/17 10:04:55;;;;;;;61.02;23.95;;;;;;;-12.16;68.17;101181.42;1670897;83;26209;-79
2021/01/17 10:07:23;;;;;;;56.55;22.10;;;;;;;-12.11;68.42;101180.91;1669175;84;25936;-79
2021/01/17 10:09:51;;;;;;;56.45;21.52;;;;;;;-12.04;67.94;101183.31;1691613;83;27600;-78
2021/01/17 10:12:24;;;;;;;55.10;23.18;;;;;;;-12.04;68.08;101188.48;1639647;84;25901;-77
2021/01/17 10:14:53;;;;;;;57.10;21.70;;;;;;;-11.98;68.39;101188.38;1656574;84;25938;-79
2021/01/17 10:17:22;;;;;;;57.05;23.38;;;;;;;-11.84;67.99;101176.91;1680711;83;25760;-79
2021/01/17 10:19:50;;;;;;;59.15;23.12;;;;;;;-11.82;68.02;101186.77;1700618;83;25807;-79
2021/01/17 10:22:18;;;;;;;50.88;21.90;;;;;;;-11.82;67.57;101182.43;1641486;84;27639;-79
2021/01/17 10:24:45;;;;;;;62.30;23.42;;;;;;;-11.83;67.56;101188.92;1653365;83;25841;-79
2021/01/17 10:27:17;;;;;;;53.92;22.02;;;;;;;-11.80;67.63;101192.28;1665852;84;25846;-79
2021/01/17 10:29:44;;;;;;;48.30;22.22;;;;;;;-11.76;67.93;101190.07;1692557;83;25817;-79
2021/01/17 10:32:17;;;;;;;68.87;23.55;;;;;;;-11.69;67.92;101189.47;1663354;83;25842;-82
2021/01/17 10:34:49;;;;;;;64.80;24.25;;;;;;;-11.55;68.11;101190.86;1670701;84;27555;-79
2021/01/17 10:37:19;;;;;;;53.98;23.02;;;;;;;-11.46;67.82;101185.92;1649615;83;26058;-79
2021/01/17 10:39:46;;;;;;;63.60;26.25;;;;;;;-11.40;68.20;101184.05;1720583;81;26448;-79
2021/01/17 10:42:28;;;;;;;57.03;24.60;;;;;;;-11.20;67.89;101184.84;1700204;81;26425;-80
2021/01/17 10:45:09;;;;;;;56.15;21.00;;;;;;;-11.14;67.41;101189.91;1716663;82;26084;-79
2021/01/17 10:47:59;;;;;;;69.40;25.77;;;;;;;-11.11;67.22;101194.98;1701110;82;31744;-80
2021/01/17 10:50:31;;;;;;;55.90;23.07;;;;;;;-11.13;67.53;101198.05;1707632;83;25405;-82
2021/01/17 10:53:20;;;;;;;55.20;23.92;;;;;;;-11.14;67.01;101206.71;1646503;85;25786;-79
2021/01/17 10:55:56;;;;;;;58.73;23.60;;;;;;;-11.18;67.35;101206.34;1664553;84;26418;-80
2021/01/17 10:58:29;;;;;;;49.98;21.02;;;;;;;-11.09;67.89;101210.88;1679584;84;25768;-81
2021/01/17 11:00:59;;;;;;;56.98;22.65;;;;;;;-11.02;68.58;101212.87;1706391;82;29307;-77
2021/01/17 11:03:38;;;;;;;49.98;22.10;;;;;;;-10.89;67.37;101209.54;1622323;84;25829;-79
2021/01/17 11:09:01;;;;;;;51.10;21.27;;;;;;;-10.92;67.01;101212.19;1846114;77;25683;-79
2021/01/17 11:11:45;;;;;;;48.38;20.45;;;;;;;-11.00;67.11;101207.66;1761688;80;25803;-78
2021/01/17 11:14:15;;;;;;;51.73;21.90;;;;;;;-10.90;67.32;101207.39;1732142;81;27438;-80
2021/01/17 11:16:54;;;;;;;49.33;22.58;;;;;;;-10.83;67.47;101207.66;1738098;81;25952;-77
2021/01/17 11:19:35;;;;;;;53.00;23.05;;;;;;;-10.54;68.25;101199.98;1670714;81;25880;-77
2021/01/17 11:22:09;;;;;;;55.80;20.97;;;;;;;-10.22;67.97;101195.70;1749485;81;25866;-80
2021/01/17 11:24:41;;;;;;;49.53;21.20;;;;;;;-10.01;67.75;101195.06;1725490;81;26418;-78
2021/01/17 11:27:15;;;;;;;53.52;23.12;;;;;;;-9.86;67.61;101195.48;1747744;81;27550;-78